Mac Dill Air Force Base
KMCF : now visible

Airfield :











YOU CAN JOIN US ON...

 
LOGIN :

Register | Disclaimer

   EN    FR    IT 

 









Legend :    VFR   Marginal VFR   IFR   Intensive IFR   Very Intensive IFR
Visi :
Ceiling :
>= 8 km
>= 3000ft
5 to 8 km
1000 to 3000 ft
1500m to 5 km
500 to 1000 ft
800 to 1500m
200 to 500 ft
< 800m
< 200 ft
Symbols :   Thunderstorms  Fog  Heavy snow  Heavy precipitations  Wind > 20 kt






- Airport Elevation : 14 ft


KMCF - Mac Dill Air Force Base

CURRENT METAR :
  • 110556Z AUTO 15003KT 10SM SCT049 26/23 A3003 RMK AO2 SLP172 60000 T02590233 10304 20256 55006 FZRANO $

EXPIRED METARs :
  • 110456Z AUTO 13003KT 10SM CLR 26/24 A3003 RMK AO2 SLP172 T02610235 403460237 FZRANO $
  • 110356Z AUTO 00000KT 10SM CLR 26/24 A3003 RMK AO2 RAE0257DZB0257E00DZB16E28 SLP172 P0000 T02620242 FZRANO $
  • 110328Z AUTO 00000KT 10SM FEW032 27/24 A3005 RMK AO2 RAE0257DZB0257E00DZB16E28 SLP179 FZRANO $
  • 110316Z AUTO 11003KT 10SM -DZ SCT032 27/24 A3005 RMK AO2 LTG DSNT N RAE0257DZB0257E00DZB16 SLP179 FZRANO $

TAF TAF KMCF
Valid from the 11 at 01:00 until the 12 at 07:00 UTC


110100Z 1101/1207 VRB06KT 9999 FEW030 SCT250 QNH3004INS
BECMG 1102/1103 VRB06KT 9999 FEW020 SCT040 QNH3006INS
BECMG 1117/1118 VRB06KT 9999 VCTS SCT030CB SCT120 QNH2998INS TX34/1119Z TN27/1109Z
KZMA FIR / North America



MET'MAP, your aeronautical weather chart ! - Copyright ORBIFLY December 2007 - Disclaimer

ORBIFLY MET'MAP TEAM :

Programming & Development : Alexandra Zaïnal
Concept & original design : Baudouin d'Aumeries
Assistance for programming : Marc-Olivier Méhu
Technical & hardware support : Manuel Goepfert

Contact : metmap@orbifly.com




SOURCES & CREDITS :

   NOAA       Earth
Advisory